Time;durP1;ratioP1;P1;durP2;ratioP2;P2;SDS_P1;SDS_P2;PMS_P1;PMS_P2;Temp;Humidity;BMP_temperature;BMP_pressure;BME280_temperature;BME280_humidity;BME280_pressure;Samples;Min_cycle;Max_cycle;Signal;HPM_P1;HPM_P2
2022/09/12 00:01:55;;;;;;;;;;;16.00;99.90;;;;;;5053795;28;19932;-83
2022/09/12 00:04:21;;;;;;;;;;;15.90;99.90;;;;;;5053881;28;19921;-83
2022/09/12 00:06:46;;;;;;;;;;;15.90;99.90;;;;;;5054046;28;20015;-83
2022/09/12 00:09:12;;;;;;;;;;;16.00;99.90;;;;;;5053797;28;19928;-83
2022/09/12 00:11:39;;;;;;;;;;;15.90;99.90;;;;;;5037125;28;20436;-83
2022/09/12 00:14:05;;;;;;;;;;;16.00;99.90;;;;;;5053968;28;20386;-83
2022/09/12 00:16:32;;;;;;;;;;;16.00;99.90;;;;;;5053496;28;20025;-83
2022/09/12 00:18:57;;;;;;;;;;;15.90;99.90;;;;;;5036961;28;19950;-83
2022/09/12 00:21:23;;;;;;;;;;;15.90;99.90;;;;;;5053682;28;19921;-83
2022/09/12 00:23:49;;;;;;;;;;;15.80;99.90;;;;;;5036950;28;20004;-83
2022/09/12 00:26:16;;;;;;;;;;;15.80;99.90;;;;;;5053626;28;19927;-83
2022/09/12 00:28:41;;;;;;;;;;;15.70;99.90;;;;;;5053579;28;19921;-83
2022/09/12 00:31:09;;;;;;;;;;;15.70;99.90;;;;;;5054402;28;19927;-83
2022/09/12 00:33:34;;;;;;;;;;;15.70;99.90;;;;;;5056468;28;19921;-83
2022/09/12 00:36:03;;;;;;;;;;;15.70;99.90;;;;;;5073723;28;19920;-83
2022/09/12 00:38:29;;;;;;;;;;;15.60;99.90;;;;;;5056406;28;19920;-83
2022/09/12 00:40:54;;;;;;;;;;;15.70;99.90;;;;;;5056498;28;19928;-83
2022/09/12 00:43:33;;;;;;;;;;;15.60;99.90;;;;;;5073293;28;19928;-83
2022/09/12 00:46:01;;;;;;;;;;;15.60;99.90;;;;;;5072933;28;19927;-83
2022/09/12 00:48:32;;;;;;;;;;;15.60;99.90;;;;;;5073225;28;19920;-83
2022/09/12 00:50:58;;;;;;;;;;;15.60;99.90;;;;;;5072944;28;19921;-83
2022/09/12 00:53:24;;;;;;;;;;;15.60;99.90;;;;;;5056684;28;19927;-83
2022/09/12 00:55:51;;;;;;;;;;;15.60;99.90;;;;;;5071522;28;21246;-83
2022/09/12 00:58:26;;;;;;;;;;;15.50;99.90;;;;;;5074481;28;20011;-83
2022/09/12 01:00:51;;;;;;;;;;;15.50;99.90;;;;;;5072505;28;19931;-83
2022/09/12 01:03:18;;;;;;;;;;;15.50;99.90;;;;;;5072908;28;19924;-83
2022/09/12 01:05:52;;;;;;;;;;;15.40;99.90;;;;;;5073264;28;19925;-83
2022/09/12 01:08:19;;;;;;;;;;;15.40;99.90;;;;;;5072791;28;19921;-83
2022/09/12 01:10:45;;;;;;;;;;;15.30;99.90;;;;;;5056132;28;20007;-83
2022/09/12 01:13:10;;;;;;;;;;;15.30;99.90;;;;;;5072474;28;19963;-83
2022/09/12 01:15:37;;;;;;;;;;;15.30;99.90;;;;;;5056357;28;19968;-83
2022/09/12 01:18:06;;;;;;;;;;;15.30;99.90;;;;;;5055935;28;19927;-83
2022/09/12 01:20:50;;;;;;;;;;;15.30;99.90;;;;;;5072731;28;19927;-83
2022/09/12 01:23:16;;;;;;;;;;;15.40;99.90;;;;;;5072158;28;20556;-83
2022/09/12 01:25:44;;;;;;;;;;;15.40;99.90;;;;;;5072309;28;19920;-83
2022/09/12 01:28:17;;;;;;;;;;;15.30;99.90;;;;;;5056182;28;19928;-83
2022/09/12 01:30:53;;;;;;;;;;;15.30;99.90;;;;;;5055665;28;19920;-82
2022/09/12 01:33:25;;;;;;;;;;;15.30;99.90;;;;;;5072467;28;19946;-83
2022/09/12 01:35:59;;;;;;;;;;;15.20;99.90;;;;;;5055334;28;20012;-83
2022/09/12 01:38:31;;;;;;;;;;;15.20;99.90;;;;;;5056089;28;19920;-83
2022/09/12 01:41:02;;;;;;;;;;;15.10;99.90;;;;;;5072337;28;20305;-82
2022/09/12 01:43:39;;;;;;;;;;;15.10;99.90;;;;;;5071968;28;20352;-83
2022/09/12 01:46:08;;;;;;;;;;;15.10;99.90;;;;;;5072043;28;19974;-83
2022/09/12 01:48:45;;;;;;;;;;;15.10;99.90;;;;;;5055234;28;20011;-83
2022/09/12 01:51:20;;;;;;;;;;;15.10;99.90;;;;;;5071646;28;19974;-83
2022/09/12 01:54:05;;;;;;;;;;;15.00;99.90;;;;;;5071909;28;20409;-83
2022/09/12 01:56:32;;;;;;;;;;;14.90;99.90;;;;;;5071915;28;19946;-83
2022/09/12 01:59:04;;;;;;;;;;;14.90;99.90;;;;;;5054952;28;19921;-83
2022/09/12 02:01:30;;;;;;;;;;;14.90;99.90;;;;;;5071524;28;20011;-83
2022/09/12 02:04:05;;;;;;;;;;;14.90;99.90;;;;;;5055147;28;19920;-82
2022/09/12 02:06:32;;;;;;;;;;;14.80;99.90;;;;;;5071372;28;20415;-82
2022/09/12 02:09:03;;;;;;;;;;;14.80;99.90;;;;;;5071755;28;20447;-83
2022/09/12 02:11:31;;;;;;;;;;;14.80;99.90;;;;;;5071575;28;19920;-82
2022/09/12 02:14:03;;;;;;;;;;;14.80;99.90;;;;;;5071782;28;19921;-83
2022/09/12 02:16:43;;;;;;;;;;;14.80;99.90;;;;;;5055079;28;19920;-83
2022/09/12 02:19:15;;;;;;;;;;;14.80;99.90;;;;;;5071917;28;20288;-83
2022/09/12 02:21:43;;;;;;;;;;;14.80;99.90;;;;;;5054143;28;19930;-83
2022/09/12 02:24:11;;;;;;;;;;;14.80;99.90;;;;;;5071710;28;19931;-83
2022/09/12 02:26:42;;;;;;;;;;;14.80;99.90;;;;;;5071584;28;19921;-83
2022/09/12 02:29:08;;;;;;;;;;;14.90;99.90;;;;;;5071235;28;19928;-83
2022/09/12 02:31:47;;;;;;;;;;;14.80;99.90;;;;;;5054634;28;20473;-82
2022/09/12 02:34:25;;;;;;;;;;;14.80;99.90;;;;;;5071290;28;20023;-82
2022/09/12 02:36:58;;;;;;;;;;;14.80;99.90;;;;;;5071251;28;19921;-83
2022/09/12 02:39:23;;;;;;;;;;;14.80;99.90;;;;;;5071286;28;19920;-83
2022/09/12 02:41:50;;;;;;;;;;;14.80;99.90;;;;;;5071150;28;20015;-83
2022/09/12 02:44:15;;;;;;;;;;;14.80;99.90;;;;;;5071202;28;19920;-83
2022/09/12 02:46:46;;;;;;;;;;;14.80;99.90;;;;;;5070956;28;19966;-82
2022/09/12 02:49:12;;;;;;;;;;;14.80;99.90;;;;;;5070662;28;20298;-83
2022/09/12 02:51:37;;;;;;;;;;;14.80;99.90;;;;;;5070835;28;19921;-83
2022/09/12 02:54:05;;;;;;;;;;;14.70;99.90;;;;;;5054355;28;20438;-83
2022/09/12 02:56:30;;;;;;;;;;;14.70;99.90;;;;;;5070872;28;19924;-83
2022/09/12 02:58:59;;;;;;;;;;;14.70;99.90;;;;;;5070766;28;20066;-83
2022/09/12 03:01:40;;;;;;;;;;;14.60;99.90;;;;;;5070444;28;19968;-83
2022/09/12 03:04:25;;;;;;;;;;;14.60;99.90;;;;;;5054270;28;19925;-83
2022/09/12 03:07:26;;;;;;;;;;;14.60;99.90;;;;;;5070585;28;20003;-83
2022/09/12 03:10:01;;;;;;;;;;;14.60;99.90;;;;;;4977299;28;20383;-83
2022/09/12 03:12:35;;;;;;;;;;;14.60;99.90;;;;;;5058527;28;19920;-83
2022/09/12 03:15:20;;;;;;;;;;;14.60;99.90;;;;;;5071170;28;20289;-83
2022/09/12 03:18:05;;;;;;;;;;;14.50;99.90;;;;;;5070145;28;19933;-83
2022/09/12 03:20:33;;;;;;;;;;;14.50;99.90;;;;;;5070843;28;19920;-83
2022/09/12 03:23:04;;;;;;;;;;;14.50;99.90;;;;;;5070326;28;19932;-83
2022/09/12 03:25:34;;;;;;;;;;;14.40;99.90;;;;;;5053756;28;19973;-83
2022/09/12 03:28:06;;;;;;;;;;;14.40;99.90;;;;;;5070752;28;19964;-82
2022/09/12 03:30:39;;;;;;;;;;;14.40;99.90;;;;;;5070473;28;20417;-83
2022/09/12 03:33:05;;;;;;;;;;;14.40;99.90;;;;;;5070467;28;19921;-83
2022/09/12 03:35:30;;;;;;;;;;;14.30;99.90;;;;;;5070233;28;19943;-83
2022/09/12 03:37:56;;;;;;;;;;;14.30;99.90;;;;;;5070594;28;19920;-83
2022/09/12 03:40:21;;;;;;;;;;;14.30;99.90;;;;;;5070777;28;19921;-83
2022/09/12 03:42:47;;;;;;;;;;;14.30;99.90;;;;;;5070044;28;20297;-83
2022/09/12 03:45:13;;;;;;;;;;;14.30;99.90;;;;;;5070492;28;19920;-83
2022/09/12 03:47:39;;;;;;;;;;;14.20;99.90;;;;;;5053519;28;20412;-82
2022/09/12 03:50:05;;;;;;;;;;;14.20;99.90;;;;;;5070462;28;20058;-82
2022/09/12 03:52:30;;;;;;;;;;;14.20;99.90;;;;;;5070081;28;20412;-83
2022/09/12 03:54:56;;;;;;;;;;;14.10;99.90;;;;;;5070597;28;19921;-83
2022/09/12 03:57:21;;;;;;;;;;;14.10;99.90;;;;;;5071388;28;20378;-82
2022/09/12 03:59:47;;;;;;;;;;;14.10;99.90;;;;;;5070515;28;20073;-82
2022/09/12 04:02:13;;;;;;;;;;;14.10;99.90;;;;;;5071501;28;19924;-82
2022/09/12 04:04:42;;;;;;;;;;;14.10;99.90;;;;;;5071294;28;19928;-82
2022/09/12 04:07:08;;;;;;;;;;;14.10;99.90;;;;;;5070282;28;20369;-83
2022/09/12 04:09:34;;;;;;;;;;;14.00;99.90;;;;;;5070571;28;20430;-83
2022/09/12 04:11:59;;;;;;;;;;;14.00;99.90;;;;;;5069758;28;19920;-83
2022/09/12 04:14:24;;;;;;;;;;;14.00;99.90;;;;;;5053306;28;20290;-83
2022/09/12 04:16:50;;;;;;;;;;;14.00;99.90;;;;;;5070107;28;19931;-82
2022/09/12 04:19:15;;;;;;;;;;;14.00;99.90;;;;;;5070342;28;19921;-82
2022/09/12 04:21:41;;;;;;;;;;;14.00;99.90;;;;;;5053038;28;20404;-83
2022/09/12 04:24:06;;;;;;;;;;;14.00;99.90;;;;;;5070047;28;19920;-82
2022/09/12 04:26:32;;;;;;;;;;;14.00;99.90;;;;;;5069716;28;19920;-83
2022/09/12 04:28:57;;;;;;;;;;;14.00;99.90;;;;;;5053314;28;19927;-82
2022/09/12 04:31:23;;;;;;;;;;;14.00;99.90;;;;;;5074226;28;19920;-82
2022/09/12 04:33:53;;;;;;;;;;;14.00;99.90;;;;;;5073380;28;19920;-83
2022/09/12 04:36:18;;;;;;;;;;;14.00;99.90;;;;;;5073665;28;19927;-82
2022/09/12 04:38:44;;;;;;;;;;;14.00;99.90;;;;;;5074813;28;19921;-82
2022/09/12 04:41:29;;;;;;;;;;;14.00;99.90;;;;;;5074259;28;19930;-82
2022/09/12 04:44:02;;;;;;;;;;;14.00;99.90;;;;;;5056680;28;19998;-83
2022/09/12 04:46:28;;;;;;;;;;;13.90;99.90;;;;;;5056443;28;20007;-82
2022/09/12 04:48:54;;;;;;;;;;;13.80;99.90;;;;;;5073118;28;20397;-82
2022/09/12 04:51:21;;;;;;;;;;;13.80;99.90;;;;;;5073085;28;20436;-82
2022/09/12 04:53:48;;;;;;;;;;;13.80;99.90;;;;;;5073131;28;19920;-82
2022/09/12 04:56:13;;;;;;;;;;;13.90;99.90;;;;;;5056070;28;19920;-82
2022/09/12 04:58:39;;;;;;;;;;;13.80;99.90;;;;;;5056689;28;19920;-82
2022/09/12 05:01:09;;;;;;;;;;;13.80;99.90;;;;;;5072741;28;19920;-82
2022/09/12 05:03:34;;;;;;;;;;;13.80;99.90;;;;;;5072655;28;19924;-82
2022/09/12 05:06:04;;;;;;;;;;;13.80;99.90;;;;;;5056231;28;19924;-82
2022/09/12 05:08:29;;;;;;;;;;;13.80;99.90;;;;;;5073172;28;19942;-83
2022/09/12 05:10:56;;;;;;;;;;;13.90;99.90;;;;;;5055982;28;20370;-82
2022/09/12 05:13:21;;;;;;;;;;;13.80;99.90;;;;;;5072703;28;20035;-82
2022/09/12 05:15:54;;;;;;;;;;;13.80;99.90;;;;;;5056440;28;19982;-82
2022/09/12 05:18:20;;;;;;;;;;;13.80;99.90;;;;;;5055773;28;20420;-82
2022/09/12 05:20:45;;;;;;;;;;;13.90;99.90;;;;;;5055976;28;19986;-82
2022/09/12 05:23:11;;;;;;;;;;;13.90;99.90;;;;;;5072231;28;19925;-82
2022/09/12 05:25:36;;;;;;;;;;;13.90;99.90;;;;;;5072633;28;20279;-82
2022/09/12 05:28:02;;;;;;;;;;;13.90;99.90;;;;;;5072857;28;19920;-82
2022/09/12 05:30:27;;;;;;;;;;;13.90;99.90;;;;;;5072595;28;19920;-82
2022/09/12 05:32:53;;;;;;;;;;;14.00;99.90;;;;;;5055638;28;19921;-82
2022/09/12 05:35:18;;;;;;;;;;;14.00;99.90;;;;;;5072413;28;19927;-82
2022/09/12 05:37:44;;;;;;;;;;;14.00;99.90;;;;;;5055496;28;19967;-82
2022/09/12 05:40:09;;;;;;;;;;;14.10;99.90;;;;;;5071787;28;20338;-82
2022/09/12 05:42:35;;;;;;;;;;;14.10;99.90;;;;;;5055286;28;19924;-82
2022/09/12 05:45:01;;;;;;;;;;;14.10;99.90;;;;;;5072274;28;19942;-82
2022/09/12 05:47:26;;;;;;;;;;;14.20;99.90;;;;;;5072030;28;19920;-82
2022/09/12 05:49:52;;;;;;;;;;;14.30;99.90;;;;;;5072046;28;20404;-82
2022/09/12 05:52:19;;;;;;;;;;;14.30;99.90;;;;;;5071578;28;19924;-82
2022/09/12 05:54:46;;;;;;;;;;;14.30;99.90;;;;;;5072098;28;19920;-82
2022/09/12 05:57:11;;;;;;;;;;;14.40;99.90;;;;;;5055279;28;19927;-82
2022/09/12 05:59:37;;;;;;;;;;;14.40;99.90;;;;;;5072007;28;19920;-82
2022/09/12 06:02:03;;;;;;;;;;;14.50;99.90;;;;;;5071464;28;19931;-82
2022/09/12 06:04:28;;;;;;;;;;;14.50;99.90;;;;;;5055009;28;19921;-82
2022/09/12 06:06:54;;;;;;;;;;;14.60;99.90;;;;;;5071427;28;19974;-82
2022/09/12 06:09:19;;;;;;;;;;;14.60;99.90;;;;;;5055362;28;20186;-82
2022/09/12 06:11:45;;;;;;;;;;;14.60;99.90;;;;;;5071195;28;19973;-82
2022/09/12 06:14:13;;;;;;;;;;;14.70;99.90;;;;;;5071574;28;19969;-82
2022/09/12 06:16:39;;;;;;;;;;;14.70;99.90;;;;;;5055019;28;20034;-82
2022/09/12 06:19:15;;;;;;;;;;;14.80;99.90;;;;;;5071650;28;19972;-82
2022/09/12 06:21:40;;;;;;;;;;;14.80;99.90;;;;;;5029237;28;19925;-83
2022/09/12 06:24:09;;;;;;;;;;;14.80;99.90;;;;;;5048271;28;19927;-82
2022/09/12 06:26:34;;;;;;;;;;;14.80;99.90;;;;;;5051115;28;20518;-82
2022/09/12 06:29:00;;;;;;;;;;;14.90;99.90;;;;;;5085153;28;20015;-82
2022/09/12 06:31:28;;;;;;;;;;;14.90;99.90;;;;;;5051389;28;19921;-83
2022/09/12 06:33:54;;;;;;;;;;;14.90;99.90;;;;;;5050073;28;20381;-82
2022/09/12 06:36:23;;;;;;;;;;;14.90;99.90;;;;;;5051209;28;20374;-83
2022/09/12 06:38:56;;;;;;;;;;;15.00;99.90;;;;;;5084964;28;19920;-82
2022/09/12 06:41:22;;;;;;;;;;;15.00;99.90;;;;;;5084014;28;19920;-82
2022/09/12 06:43:48;;;;;;;;;;;15.00;99.90;;;;;;5051011;28;20294;-82
2022/09/12 06:46:13;;;;;;;;;;;15.10;99.90;;;;;;5084613;28;20378;-82
2022/09/12 06:48:39;;;;;;;;;;;15.10;99.90;;;;;;5084470;28;19964;-82
2022/09/12 06:51:06;;;;;;;;;;;15.10;99.90;;;;;;5050785;28;19920;-82
2022/09/12 06:53:32;;;;;;;;;;;15.10;99.90;;;;;;5083861;28;19924;-82
2022/09/12 06:55:59;;;;;;;;;;;15.20;99.90;;;;;;5051832;28;20039;-83
2022/09/12 06:58:25;;;;;;;;;;;15.20;99.90;;;;;;5051385;28;19928;-83
2022/09/12 07:00:51;;;;;;;;;;;15.20;99.90;;;;;;5050682;28;19925;-83
2022/09/12 07:03:17;;;;;;;;;;;15.20;99.90;;;;;;5050372;28;19925;-83
2022/09/12 07:05:42;;;;;;;;;;;15.20;99.90;;;;;;5050755;28;19920;-82
2022/09/12 07:08:08;;;;;;;;;;;15.30;99.90;;;;;;5051215;28;20403;-82
2022/09/12 07:10:33;;;;;;;;;;;15.30;99.90;;;;;;5050595;28;19928;-83
2022/09/12 07:12:59;;;;;;;;;;;15.30;99.90;;;;;;5067543;28;19943;-83
2022/09/12 07:15:25;;;;;;;;;;;15.40;99.90;;;;;;5051975;28;19921;-82
2022/09/12 07:17:51;;;;;;;;;;;15.40;99.90;;;;;;5083900;28;19935;-82
2022/09/12 07:20:16;;;;;;;;;;;15.40;99.90;;;;;;5051128;28;20290;-83
2022/09/12 07:22:42;;;;;;;;;;;15.50;99.90;;;;;;5083995;28;20383;-83
2022/09/12 07:25:07;;;;;;;;;;;15.50;99.90;;;;;;5047821;28;19920;-83
2022/09/12 07:27:33;;;;;;;;;;;15.50;99.90;;;;;;5050181;28;19994;-83
2022/09/12 07:30:00;;;;;;;;;;;15.60;99.90;;;;;;5033489;28;19927;-83
2022/09/12 07:32:26;;;;;;;;;;;15.60;99.90;;;;;;5032930;28;20019;-83
2022/09/12 07:34:51;;;;;;;;;;;15.60;99.90;;;;;;5024948;28;20346;-83
2022/09/12 07:37:17;;;;;;;;;;;15.70;99.90;;;;;;5039392;28;19928;-83
2022/09/12 07:39:43;;;;;;;;;;;15.70;99.90;;;;;;5038593;28;19963;-83
2022/09/12 07:42:11;;;;;;;;;;;15.70;99.90;;;;;;5055200;28;19994;-83
2022/09/12 07:44:36;;;;;;;;;;;15.80;99.90;;;;;;5039467;28;19920;-83
2022/09/12 07:47:02;;;;;;;;;;;15.80;99.90;;;;;;5023372;28;20605;-83
2022/09/12 07:49:28;;;;;;;;;;;15.90;99.90;;;;;;5038436;28;19921;-83
2022/09/12 07:51:55;;;;;;;;;;;15.90;99.90;;;;;;5039633;28;19921;-83
2022/09/12 07:54:20;;;;;;;;;;;16.00;99.90;;;;;;5039914;28;19932;-83
2022/09/12 07:56:46;;;;;;;;;;;16.00;99.90;;;;;;5038246;28;19929;-83
2022/09/12 07:59:11;;;;;;;;;;;16.10;99.90;;;;;;5045893;28;20271;-83
2022/09/12 08:01:38;;;;;;;;;;;16.10;99.90;;;;;;5013161;28;19921;-83
2022/09/12 08:04:04;;;;;;;;;;;16.20;99.90;;;;;;5030972;28;19925;-83
2022/09/12 08:06:30;;;;;;;;;;;16.30;99.90;;;;;;5033591;28;20012;-83
2022/09/12 08:08:57;;;;;;;;;;;16.30;99.90;;;;;;5050145;28;19921;-83
2022/09/12 08:11:23;;;;;;;;;;;16.40;99.90;;;;;;5049858;28;19928;-83
2022/09/12 08:13:50;;;;;;;;;;;16.40;99.90;;;;;;5017347;28;19921;-83
2022/09/12 08:16:17;;;;;;;;;;;16.40;99.90;;;;;;5049962;28;19921;-83
2022/09/12 08:18:43;;;;;;;;;;;16.50;99.90;;;;;;5033595;28;20421;-83
2022/09/12 08:21:12;;;;;;;;;;;16.50;99.90;;;;;;5050148;28;19921;-83
2022/09/12 08:23:37;;;;;;;;;;;16.60;99.90;;;;;;5034390;28;20382;-83
2022/09/12 08:26:04;;;;;;;;;;;16.60;99.90;;;;;;5034452;28;19928;-83
2022/09/12 08:28:30;;;;;;;;;;;16.60;99.90;;;;;;5033296;28;19921;-83
2022/09/12 08:31:06;;;;;;;;;;;16.60;99.90;;;;;;5033132;28;19961;-83
2022/09/12 08:33:32;;;;;;;;;;;16.70;99.90;;;;;;5049827;28;20297;-83
2022/09/12 08:36:05;;;;;;;;;;;16.70;99.90;;;;;;5049820;28;20452;-83
2022/09/12 08:38:31;;;;;;;;;;;16.80;99.90;;;;;;5034108;28;20291;-83
2022/09/12 08:41:06;;;;;;;;;;;16.90;99.90;;;;;;5032700;28;19927;-83
2022/09/12 08:43:38;;;;;;;;;;;16.90;99.90;;;;;;5033044;28;19925;-83
2022/09/12 08:46:08;;;;;;;;;;;16.90;99.90;;;;;;5032950;28;19951;-83
2022/09/12 08:48:34;;;;;;;;;;;17.00;99.90;;;;;;5049450;28;19921;-83
2022/09/12 08:51:00;;;;;;;;;;;17.00;99.90;;;;;;5016343;28;19922;-83
2022/09/12 08:53:26;;;;;;;;;;;17.10;99.90;;;;;;5032612;28;20490;-83
2022/09/12 08:55:54;;;;;;;;;;;17.10;99.90;;;;;;5016284;28;19974;-83
2022/09/12 08:58:21;;;;;;;;;;;17.20;99.90;;;;;;5048912;28;19921;-83
2022/09/12 09:01:02;;;;;;;;;;;17.30;99.90;;;;;;5016335;28;19925;-83
2022/09/12 09:03:53;;;;;;;;;;;17.40;99.90;;;;;;5032550;28;19925;-83
2022/09/12 09:06:24;;;;;;;;;;;17.50;99.90;;;;;;5042163;28;19960;-83
2022/09/12 09:08:50;;;;;;;;;;;17.50;99.90;;;;;;5046568;28;19927;-83
2022/09/12 09:11:24;;;;;;;;;;;17.60;99.90;;;;;;5052339;28;20011;-83
2022/09/12 09:16:45;;;;;;;;;;;17.80;99.90;;;;;;5068234;28;19986;-83
2022/09/12 09:19:25;;;;;;;;;;;17.90;99.90;;;;;;5052394;28;19921;-83
2022/09/12 09:21:58;;;;;;;;;;;18.00;99.90;;;;;;5051880;28;19924;-83
2022/09/12 09:24:27;;;;;;;;;;;18.20;99.90;;;;;;5086158;28;19920;-83
2022/09/12 09:26:59;;;;;;;;;;;18.20;99.90;;;;;;5051706;28;20271;-83
2022/09/12 09:29:40;;;;;;;;;;;18.30;99.90;;;;;;5052370;28;19999;-83
2022/09/12 09:32:25;;;;;;;;;;;18.30;99.90;;;;;;5045834;28;19925;-83
2022/09/12 09:34:51;;;;;;;;;;;18.40;99.90;;;;;;5031688;28;19931;-84
2022/09/12 09:37:19;;;;;;;;;;;18.50;99.90;;;;;;5015006;28;20302;-84
2022/09/12 09:41:51;;;;;;;36.30;30.83;;;18.60;99.90;;;;;;5127852;27;1879816;-83
2022/09/12 09:44:17;;;;;;;37.35;31.58;;;18.70;99.90;;;;;;5152438;27;20054;-83
2022/09/12 09:46:43;;;;;;;34.75;30.45;;;18.80;99.90;;;;;;5152131;27;20695;-83
2022/09/12 09:49:13;;;;;;;35.05;30.33;;;18.90;99.90;;;;;;5152544;27;20034;-83
2022/09/12 09:51:40;;;;;;;33.97;30.42;;;19.00;99.90;;;;;;5151694;27;20043;-83
2022/09/12 09:54:24;;;;;;;36.30;31.33;;;19.10;99.90;;;;;;5135096;27;20038;-83
2022/09/12 09:56:50;;;;;;;36.33;31.60;;;19.20;99.90;;;;;;5152222;27;20422;-83
2022/09/12 09:59:32;;;;;;;34.67;29.67;;;19.30;99.90;;;;;;5151909;27;20608;-83
2022/09/12 10:02:13;;;;;;;35.30;31.10;;;19.40;99.90;;;;;;5151825;27;20038;-83
2022/09/12 10:04:51;;;;;;;34.92;31.13;;;19.50;99.90;;;;;;5151983;27;20042;-83
2022/09/12 10:07:19;;;;;;;33.45;29.80;;;19.60;99.90;;;;;;5134160;27;20495;-83
2022/09/12 10:10:24;;;;;;;33.35;29.80;;;19.80;99.90;;;;;;5134748;27;20034;-83
2022/09/12 10:13:04;;;;;;;33.92;29.70;;;19.90;99.90;;;;;;5170035;27;20632;-83
2022/09/12 10:15:31;;;;;;;38.03;31.38;;;20.00;99.90;;;;;;5151519;27;20530;-83
2022/09/12 10:17:58;;;;;;;35.83;31.35;;;20.10;99.90;;;;;;5151652;27;20046;-83
2022/09/12 10:20:40;;;;;;;35.53;29.35;;;20.20;99.90;;;;;;5134448;27;20038;-83
2022/09/12 10:23:17;;;;;;;31.15;27.85;;;20.20;99.90;;;;;;5150945;27;20052;-83
2022/09/12 10:25:46;;;;;;;34.25;30.60;;;20.30;99.90;;;;;;5141793;27;20073;-83
2022/09/12 10:28:29;;;;;;;34.38;30.48;;;20.50;99.90;;;;;;5140877;27;20034;-83
2022/09/12 10:30:55;;;;;;;32.38;28.88;;;20.60;99.90;;;;;;5140941;27;20129;-83
2022/09/12 10:33:23;;;;;;;34.47;30.20;;;20.60;99.90;;;;;;5122182;27;20122;-83
2022/09/12 10:35:49;;;;;;;33.25;29.65;;;20.70;99.90;;;;;;5140195;27;20079;-83
2022/09/12 10:38:26;;;;;;;34.97;28.70;;;20.80;99.90;;;;;;5141569;27;21170;-83
2022/09/12 10:41:04;;;;;;;35.38;29.38;;;20.90;99.90;;;;;;5140651;27;20035;-83
2022/09/12 10:43:38;;;;;;;33.53;29.42;;;21.10;99.90;;;;;;5130202;27;20037;-83
2022/09/12 10:46:20;;;;;;;30.52;27.23;;;21.20;99.90;;;;;;5113206;27;20055;-83
2022/09/12 10:48:51;;;;;;;28.77;25.00;;;21.20;99.90;;;;;;5130362;27;20038;-83
2022/09/12 10:51:22;;;;;;;30.33;25.85;;;21.30;99.90;;;;;;5123903;27;20039;-83
2022/09/12 10:53:49;;;;;;;29.35;25.55;;;21.40;99.90;;;;;;5116746;27;20042;-83
2022/09/12 10:56:20;;;;;;;26.40;23.50;;;21.40;99.90;;;;;;5099579;27;20039;-83
2022/09/12 10:59:17;;;;;;;28.52;24.15;;;21.50;99.90;;;;;;5099475;27;20477;-83
2022/09/12 11:01:47;;;;;;;27.80;24.80;;;21.60;99.90;;;;;;5053152;27;20134;-84
2022/09/12 11:04:27;;;;;;;25.27;22.58;;;21.70;99.90;;;;;;5117101;27;20118;-84
2022/09/12 11:07:25;;;;;;;24.48;21.05;;;21.90;99.90;;;;;;5117006;27;20039;-84
2022/09/12 11:10:12;;;;;;;24.65;21.58;;;22.00;99.90;;;;;;5116971;27;20046;-84
2022/09/12 11:13:10;;;;;;;23.65;21.15;;;22.10;99.90;;;;;;5120151;27;20038;-84
2022/09/12 11:15:53;;;;;;;24.92;20.75;;;22.20;99.90;;;;;;5133984;27;20083;-84
2022/09/12 11:18:34;;;;;;;26.33;22.90;;;22.20;99.90;;;;;;5120087;27;20043;-84
2022/09/12 11:21:08;;;;;;;24.45;21.80;;;22.30;99.90;;;;;;5119748;27;20047;-84
2022/09/12 11:23:59;;;;;;;25.30;21.08;;;22.40;99.90;;;;;;5137346;27;20125;-84
2022/09/12 11:26:46;;;;;;;25.60;21.95;;;22.40;99.90;;;;;;5137238;27;20067;-84
2022/09/12 11:29:33;;;;;;;24.30;21.70;;;22.50;99.90;;;;;;5119674;27;20042;-84
2022/09/12 11:32:32;;;;;;;24.92;22.33;;;22.50;99.90;;;;;;5117548;27;20043;-84
2022/09/12 11:35:38;;;;;;;23.20;19.65;;;22.70;99.90;;;;;;5116530;27;20031;-84
2022/09/12 11:38:12;;;;;;;22.85;20.35;;;22.90;99.90;;;;;;5014675;28;20041;-84
2022/09/12 11:40:45;;;;;;;21.83;19.13;;;22.90;99.90;;;;;;5104762;27;20055;-84
2022/09/12 11:43:28;;;;;;;19.65;16.38;;;23.10;99.90;;;;;;5115862;27;20478;-84
2022/09/12 11:45:58;;;;;;;17.02;14.63;;;23.30;99.90;;;;;;5099204;27;20035;-84
2022/09/12 11:48:54;;;;;;;19.98;16.60;;;23.40;99.90;;;;;;5116300;27;20506;-84
2022/09/12 11:51:32;;;;;;;21.40;16.50;;;23.60;99.90;;;;;;5073373;27;20043;-84
2022/09/12 11:54:36;;;;;;;16.98;14.25;;;23.60;99.90;;;;;;5099307;27;20551;-84
2022/09/12 11:57:27;;;;;;;19.02;15.35;;;23.60;99.90;;;;;;5099092;27;20078;-84
2022/09/12 11:59:59;;;;;;;19.25;13.50;;;23.50;99.90;;;;;;5115918;27;20039;-84
2022/09/12 12:02:32;;;;;;;14.50;11.45;;;23.50;99.90;;;;;;5122462;27;20070;-84
2022/09/12 12:05:14;;;;;;;18.27;13.75;;;23.50;98.90;;;;;;5098245;27;20442;-84
2022/09/12 12:07:43;;;;;;;16.73;13.67;;;23.60;99.30;;;;;;5115779;27;20035;-84
2022/09/12 12:10:23;;;;;;;17.45;12.50;;;23.60;98.80;;;;;;5098664;27;20039;-84
2022/09/12 12:12:50;;;;;;;15.98;12.07;;;23.70;99.10;;;;;;5115309;27;20095;-84
2022/09/12 12:15:17;;;;;;;15.85;12.88;;;23.80;97.70;;;;;;5098605;27;20065;-84
2022/09/12 12:17:43;;;;;;;15.68;11.70;;;23.80;97.90;;;;;;5115216;27;20385;-84
2022/09/12 12:20:19;;;;;;;16.15;11.77;;;24.00;99.30;;;;;;5098184;27;20045;-84
2022/09/12 12:22:52;;;;;;;15.93;12.70;;;24.10;99.20;;;;;;5114658;27;20046;-84
2022/09/12 12:25:18;;;;;;;14.88;12.48;;;24.20;99.20;;;;;;5098333;27;20111;-84
2022/09/12 12:27:46;;;;;;;16.83;13.38;;;24.30;94.60;;;;;;5114850;27;20405;-84
2022/09/12 12:30:30;;;;;;;15.60;12.60;;;24.30;93.50;;;;;;5097701;27;20539;-84
2022/09/12 12:33:12;;;;;;;14.20;11.10;;;24.50;96.20;;;;;;5114631;27;20404;-84
2022/09/12 12:35:45;;;;;;;16.58;13.43;;;24.50;94.70;;;;;;5114557;27;20564;-84
2022/09/12 12:38:37;;;;;;;17.05;13.27;;;24.60;93.80;;;;;;5114572;27;20445;-84
2022/09/12 12:41:17;;;;;;;15.13;12.07;;;24.60;93.50;;;;;;5097098;27;20050;-84
2022/09/12 12:43:47;;;;;;;17.73;12.70;;;24.70;95.10;;;;;;5097315;27;20043;-84
2022/09/12 12:46:14;;;;;;;14.23;12.10;;;24.80;92.80;;;;;;5114210;27;20118;-84
2022/09/12 12:48:51;;;;;;;13.38;11.13;;;24.90;94.80;;;;;;5114501;27;20031;-84
2022/09/12 12:51:46;;;;;;;14.10;11.90;;;25.00;92.40;;;;;;5114281;27;20381;-84
2022/09/12 12:54:40;;;;;;;14.23;11.52;;;25.10;86.80;;;;;;5114339;27;20504;-84
2022/09/12 12:57:24;;;;;;;15.13;11.48;;;25.10;86.70;;;;;;5097129;27;20456;-84
2022/09/12 13:00:24;;;;;;;14.73;12.00;;;25.20;90.80;;;;;;5114234;27;20050;-84
2022/09/12 13:03:00;;;;;;;15.23;11.90;;;25.30;90.20;;;;;;5114182;27;20106;-85
2022/09/12 13:05:28;;;;;;;13.38;9.57;;;25.50;91.10;;;;;;5113912;27;20046;-84
2022/09/12 13:08:15;;;;;;;13.85;8.30;;;25.50;85.60;;;;;;5097211;27;20039;-84
2022/09/12 13:10:52;;;;;;;10.48;7.68;;;25.70;87.70;;;;;;5113930;27;20039;-84
2022/09/12 13:13:30;;;;;;;11.57;7.28;;;25.70;84.80;;;;;;5113980;27;20122;-84
2022/09/12 13:15:55;;;;;;;11.48;7.70;;;25.70;78.50;;;;;;5113698;27;20039;-84
2022/09/12 13:18:29;;;;;;;14.20;8.65;;;25.70;76.80;;;;;;5113938;27;20096;-84
2022/09/12 13:21:18;;;;;;;14.75;9.77;;;25.70;75.40;;;;;;5113421;27;20039;-84
2022/09/12 13:23:58;;;;;;;12.35;7.82;;;25.70;77.70;;;;;;5113871;27;20039;-84
2022/09/12 13:26:24;;;;;;;10.65;6.93;;;25.80;75.90;;;;;;5113531;27;20503;-84
2022/09/12 13:29:15;;;;;;;12.60;7.20;;;25.90;74.60;;;;;;5113889;27;20035;-84
2022/09/12 13:31:42;;;;;;;12.35;8.65;;;26.10;70.90;;;;;;5113397;27;20035;-84
2022/09/12 13:34:12;;;;;;;12.35;8.52;;;26.10;71.50;;;;;;5113587;28;20043;-84
2022/09/12 13:37:03;;;;;;;12.45;8.65;;;26.10;71.40;;;;;;5114088;28;20047;-84
2022/09/12 13:40:15;;;;;;;11.23;7.90;;;26.30;73.80;;;;;;5118852;27;20087;-85
2022/09/12 13:42:47;;;;;;;11.05;8.18;;;26.80;75.10;;;;;;5116247;28;20442;-84
2022/09/12 13:45:25;;;;;;;10.90;6.30;;;27.60;69.30;;;;;;5113155;28;20039;-84
2022/09/12 13:48:00;;;;;;;14.15;9.68;;;28.20;66.10;;;;;;5113965;28;20042;-84
2022/09/12 13:50:31;;;;;;;10.77;7.70;;;28.70;64.40;;;;;;5113445;28;20053;-84
2022/09/12 13:53:03;;;;;;;10.35;7.60;;;29.00;63.20;;;;;;5113207;28;20039;-84
2022/09/12 13:55:39;;;;;;;10.52;7.57;;;29.10;62.10;;;;;;5112487;28;20065;-84
2022/09/12 13:58:14;;;;;;;9.88;6.70;;;29.20;61.10;;;;;;5113745;28;20039;-84
2022/09/12 14:00:40;;;;;;;10.73;7.25;;;29.00;60.00;;;;;;5113792;28;20042;-84
2022/09/12 14:06:15;;;;;;;11.57;5.95;;;28.50;61.10;;;;;;5113847;28;20039;-84
2022/09/12 14:08:41;;;;;;;9.13;5.47;;;28.00;59.80;;;;;;5114021;28;20080;-84
2022/09/12 14:11:17;;;;;;;10.52;5.65;;;27.90;60.70;;;;;;5096399;28;20054;-85
2022/09/12 14:13:44;;;;;;;8.65;5.43;;;27.50;60.70;;;;;;5113905;28;20492;-85